Latest Weather Observations for Lucas Heights

IDN60901

Issued at 6:05 pm EST Sunday 31 August 2014 (issued every 10 minutes, with the page automatically refreshed every 10 minutes)

About weather observations | Map of Sydney area stations | Latest observations for Sydney area | Other Formats
Station Details ID: 066023 Name: LUCAS HEIGHTS AWS Lat: -34.05 Lon: 150.98 Height: 140.0 m
Data from the previous 72 hours. | See also: Recent months for locations in New South Wales
Date/Time
EST
Tmp

°C
App
Tmp
°C
Dew
Point
°C
Rel
Hum
%
Delta-T

°C
Wind Press
QNH
hPa
Press
MSL
hPa
Rain
since
9 am
mm
Dir
 
Spd
km/h
Gust
km/h
Spd
kts
Gust
kts
31/05:45pm 15.1 12.9 10.9 76 2.2 E 13 19 7 10 1017.5 - 0.0
31/05:30pm 15.5 13.2 10.6 72 2.6 ESE 13 19 7 10 1017.4 - 0.0
31/05:15pm 16.0 13.8 10.7 71 2.8 ESE 13 19 7 10 1017.3 - 0.0
31/05:00pm 16.4 13.8 10.8 69 3.0 ESE 15 20 8 11 1017.3 - 0.0
31/04:45pm 16.7 14.2 10.9 68 3.1 E 15 20 8 11 1017.3 - 0.0
31/04:30pm 17.0 14.5 11.0 68 3.2 ESE 15 20 8 11 1017.3 - 0.0
31/04:15pm 17.4 15.0 11.3 67 3.3 ESE 15 19 8 10 1017.3 - 0.0
31/04:00pm 17.6 15.6 11.6 68 3.3 ESE 13 19 7 10 1017.3 - 0.0
31/03:45pm 17.8 15.5 11.7 67 3.4 ESE 15 22 8 12 1017.3 - 0.0
31/03:30pm 18.0 15.7 11.6 66 3.5 ESE 15 22 8 12 1017.4 - 0.0
31/03:15pm 18.2 16.3 11.9 66 3.5 ESE 13 19 7 10 1017.4 - 0.0
31/03:00pm 18.1 15.8 11.7 66 3.5 E 15 20 8 11 1017.4 - 0.0
31/02:45pm 18.7 17.2 11.8 64 3.8 E 11 19 6 10 1017.5 - 0.0
31/02:30pm 19.5 17.4 12.4 63 4.0 ENE 15 24 8 13 1017.6 - 0.0
31/02:15pm 19.5 18.1 12.1 62 4.1 ENE 11 15 6 8 1017.7 - 0.0
31/02:00pm 19.3 17.9 10.8 58 4.6 NE 9 17 5 9 1017.9 - 0.0
31/01:45pm 19.6 18.5 9.9 53 5.2 E 6 9 3 5 1018.0 - 0.0
31/01:30pm 19.7 18.6 9.8 52 5.3 SE 6 9 3 5 1018.1 - 0.0
31/01:15pm 19.9 19.0 10.6 55 5.1 N 6 13 3 7 1018.4 - 0.0
31/01:00pm 18.9 17.7 10.4 57 4.6 W 7 13 4 7 1018.7 - 0.0
31/12:45pm 18.6 17.5 9.9 57 4.7 SSW 6 11 3 6 1018.9 - 0.0
31/12:30pm 19.0 18.2 11.2 60 4.3 SSW 6 11 3 6 1019.2 - 0.0
31/12:15pm 18.0 16.9 10.5 61 4.0 SW 7 11 4 6 1019.5 - 0.0
31/12:00pm 18.1 16.7 11.0 63 3.9 WSW 9 17 5 9 1019.7 - 0.0
31/11:45am 17.7 16.2 10.6 63 3.8 SSW 9 15 5 8 1019.9 - 0.0
31/11:30am 17.8 17.0 11.1 65 3.6 WSW 6 13 3 7 1020.1 - 0.0
31/11:15am 16.9 16.0 10.8 67 3.3 SSE 6 13 3 7 1020.3 - 0.0
31/11:00am 17.0 16.2 10.9 67 3.3 S 6 11 3 6 1020.4 - 0.0
31/10:45am 16.9 15.4 10.7 67 3.3 WSW 9 17 5 9 1020.6 - 0.0
31/10:30am 16.7 14.9 10.7 67 3.2 WSW 11 19 6 10 1020.8 - 0.0
31/10:15am 16.5 14.7 10.7 68 3.1 SW 11 19 6 10 1020.9 - 0.0
31/10:00am 16.0 13.7 10.5 70 2.9 WSW 13 19 7 10 1021.0 - 0.0
31/09:45am 15.7 13.4 10.5 71 2.8 SW 13 20 7 11 1021.1 - 0.0
31/09:30am 15.1 12.4 10.2 72 2.6 WSW 15 20 8 11 1021.2 - 0.0
31/09:15am 14.7 12.0 10.2 74 2.4 SW 15 22 8 12 1021.3 - 0.0
31/09:00am 14.1 11.3 9.9 76 2.2 SW 15 22 8 12 1021.4 - 0.4
31/08:45am 13.4 10.1 9.7 78 1.9 SW 17 30 9 16 1021.5 - 0.4
31/08:30am 13.0 9.2 9.8 81 1.7 SW 20 28 11 15 1021.4 - 0.4
31/08:15am 12.6 9.8 10.0 84 1.3 SW 15 22 8 12 1021.4 - 0.4
31/08:00am 11.6 9.0 9.4 86 1.1 SW 13 22 7 12 1021.4 - 0.4
31/07:45am 10.8 7.7 8.8 87 1.0 SW 15 19 8 10 1021.3 - 0.4
31/07:30am 10.6 7.4 8.6 87 1.0 SW 15 20 8 11 1021.3 - 0.4
31/07:15am 10.5 7.0 8.6 88 0.9 WSW 17 20 9 11 1021.2 - 0.4
31/07:00am 10.2 7.0 8.3 88 0.9 SW 15 19 8 10 1021.2 - 0.4
31/06:45am 9.9 7.0 8.0 88 0.9 SW 13 17 7 9 1021.1 - 0.4
31/06:30am 9.8 6.8 7.9 88 0.9 SW 13 19 7 10 1021.0 - 0.4
31/06:15am 9.8 6.8 7.8 87 1.0 SW 13 15 7 8 1020.9 - 0.4
31/06:00am 9.9 7.7 7.8 87 1.0 SSW 9 13 5 7 1020.8 - 0.4
31/05:45am 10.3 7.4 8.2 87 1.0 SW 13 20 7 11 1020.8 - 0.4
31/05:30am 10.4 5.9 8.4 87 1.0 SW 22 26 12 14 1020.7 - 0.4
31/05:15am 10.3 5.0 8.4 88 0.9 SW 26 30 14 16 1020.7 - 0.4
31/05:00am 9.8 5.2 8.0 88 0.9 SW 22 28 12 15 1020.7 - 0.4
31/04:45am 9.6 5.3 7.7 88 0.9 SW 20 26 11 14 1020.6 - 0.4
31/04:30am 9.7 5.6 7.7 87 1.0 SW 19 26 10 14 1020.6 - 0.4
31/04:15am 9.8 6.1 7.8 87 1.0 SW 17 20 9 11 1020.6 - 0.4
31/04:00am 10.1 7.2 8.2 88 0.9 SW 13 20 7 11 1020.7 - 0.4
31/03:45am 10.0 5.7 8.0 87 1.0 SW 20 26 11 14 1020.7 - 0.4
31/03:30am 9.9 4.5 8.0 88 0.9 SW 26 30 14 16 1020.8 - 0.4
31/03:15am 10.0 4.2 8.1 88 0.9 WSW 28 33 15 18 1020.8 - 0.4
31/03:00am 9.9 5.3 8.0 88 0.9 SW 22 33 12 18 1020.8 - 0.4
31/02:45am 9.9 6.6 7.9 87 1.0 SSW 15 19 8 10 1020.8 - 0.4
31/02:30am 10.0 6.7 7.9 87 1.0 SSW 15 19 8 10 1020.9 - 0.4
31/02:15am 10.3 7.4 8.3 87 1.0 SSW 13 19 7 10 1021.0 - 0.4
31/02:00am 10.6 7.8 8.5 87 1.0 SSW 13 19 7 10 1021.1 - 0.4
31/01:45am 10.9 8.2 8.8 87 1.0 SSW 13 19 7 10 1021.3 - 0.4
31/01:30am 10.8 8.0 8.6 86 1.1 SSW 13 19 7 10 1021.4 - 0.4
31/01:15am 10.8 7.9 8.3 84 1.2 SW 13 17 7 9 1021.5 - 0.4
31/01:00am 11.8 9.1 9.1 83 1.4 SSW 13 22 7 12 1021.6 - 0.4
31/12:45am 12.4 9.6 9.9 85 1.3 SSW 15 22 8 12 1021.6 - 0.4
31/12:30am 12.2 9.3 9.6 84 1.3 S 15 19 8 10 1021.7 - 0.4
31/12:15am 12.2 9.3 9.6 84 1.3 S 15 22 8 12 1021.8 - 0.4
31/12:00am 12.3 9.1 9.8 85 1.3 S 17 28 9 15 1021.9 - 0.4
 
Date/Time
EST
Tmp

°C
App
Tmp
°C
Dew
Point
°C
Rel
Hum
%
Delta-T

°C
Wind Press
QNH
hPa
Press
MSL
hPa
Rain
since
9 am
mm
Dir
 
Spd
km/h
Gust
km/h
Spd
kts
Gust
kts
30/11:45pm 12.2 8.9 9.6 84 1.3 S 17 28 9 15 1022.0 - 0.4
30/11:30pm 12.0 9.0 9.4 84 1.3 SSW 15 24 8 13 1022.1 - 0.4
30/11:15pm 11.9 9.2 9.1 83 1.4 SSW 13 20 7 11 1022.2 - 0.4
30/11:00pm 11.9 8.5 9.0 82 1.5 SSW 17 20 9 11 1022.2 - 0.4
30/10:45pm 12.1 9.0 9.0 81 1.6 SW 15 19 8 10 1022.2 - 0.4
30/10:30pm 12.6 10.0 9.3 80 1.7 SSW 13 19 7 10 1022.3 - 0.4
30/10:15pm 12.7 10.1 9.4 80 1.7 SSW 13 19 7 10 1022.4 - 0.4
30/10:00pm 12.8 9.8 9.4 80 1.7 SSW 15 22 8 12 1022.4 - 0.4
30/09:45pm 12.8 9.8 9.4 80 1.7 SSW 15 22 8 12 1022.5 - 0.4
30/09:30pm 12.9 9.9 9.4 79 1.8 SSW 15 22 8 12 1022.6 - 0.4
30/09:15pm 13.0 9.3 9.4 79 1.8 SSW 19 28 10 15 1022.6 - 0.4
30/09:00pm 13.1 9.4 9.5 79 1.8 SSW 19 30 10 16 1022.7 - 0.4
30/08:45pm 13.0 9.3 9.6 80 1.7 SSW 19 28 10 15 1022.7 - 0.4
30/08:30pm 12.9 9.2 9.6 80 1.7 SSW 19 26 10 14 1022.7 - 0.4
30/08:15pm 12.8 9.1 9.6 81 1.6 SSW 19 26 10 14 1022.7 - 0.4
30/08:00pm 12.9 9.6 9.7 81 1.6 SSW 17 22 9 12 1022.7 - 0.4
30/07:45pm 12.9 9.6 9.7 81 1.6 SSW 17 22 9 12 1022.6 - 0.4
30/07:30pm 13.1 10.3 9.9 81 1.7 SSW 15 22 8 12 1022.5 - 0.4
30/07:15pm 13.3 10.1 10.1 81 1.7 SSW 17 28 9 15 1022.4 - 0.4
30/07:00pm 13.2 9.7 10.2 82 1.6 SSW 19 26 10 14 1022.3 - 0.4
30/06:45pm 13.2 9.1 10.1 81 1.6 S 22 30 12 16 1022.3 - 0.4
30/06:30pm 13.3 9.8 10.1 81 1.7 SSW 19 30 10 16 1022.1 - 0.4
30/06:15pm 13.6 9.9 10.3 80 1.7 SSW 20 33 11 18 1022.2 - 0.4
30/06:00pm 13.7 10.3 10.5 81 1.7 SSW 19 30 10 16 1022.2 - 0.4
30/05:45pm 13.7 10.1 10.6 81 1.6 S 20 33 11 18 1022.1 - 0.4
30/05:30pm 13.7 10.1 10.7 82 1.6 S 20 33 11 18 1022.1 - 0.4
30/05:15pm 13.6 9.6 10.6 82 1.6 S 22 37 12 20 1022.1 - 0.4
30/05:00pm 13.8 9.8 10.6 81 1.7 S 22 33 12 18 1022.0 - 0.4
30/04:45pm 14.0 9.7 10.7 80 1.7 S 24 37 13 20 1022.0 - 0.4
30/04:30pm 14.4 10.5 10.7 78 2.0 S 22 44 12 24 1022.0 - 0.4
30/04:15pm 14.8 10.6 11.2 79 1.9 S 24 41 13 22 1022.0 - 0.4
30/04:00pm 14.5 10.7 11.1 80 1.8 S 22 39 12 21 1022.1 - 0.4
30/03:45pm 14.2 10.0 11.2 82 1.6 S 24 33 13 18 1022.2 - 0.4
30/03:30pm 14.0 10.5 10.8 81 1.7 S 20 33 11 18 1022.3 - 0.4
30/03:15pm 14.8 10.1 10.8 77 2.1 S 26 43 14 23 1022.2 - 0.4
30/03:00pm 15.3 10.7 11.1 76 2.3 S 26 44 14 24 1022.1 - 0.4
30/02:45pm 15.1 11.3 11.1 77 2.1 S 22 39 12 21 1022.1 - 0.4
30/02:30pm 15.1 10.9 11.2 77 2.1 S 24 46 13 25 1022.4 - 0.4
30/02:15pm 15.1 10.1 11.0 76 2.2 S 28 43 15 23 1022.5 - 0.4
30/02:00pm 15.1 10.1 10.8 75 2.3 S 28 41 15 22 1022.6 - 0.4
30/01:45pm 16.1 11.5 11.2 72 2.6 S 26 43 14 23 1022.6 - 0.4
30/01:30pm 16.4 11.3 11.8 74 2.5 S 30 41 16 22 1022.6 - 0.4
30/01:15pm 15.8 11.0 11.8 77 2.2 S 28 44 15 24 1022.7 - 0.4
30/01:00pm 15.6 10.8 11.7 77 2.1 S 28 44 15 24 1022.8 - 0.4
30/12:45pm 15.5 10.8 12.1 80 1.9 S 28 44 15 24 1022.9 - 0.4
30/12:30pm 14.7 10.4 12.0 84 1.5 S 26 43 14 23 1023.1 - 0.4
30/12:15pm 14.4 10.1 12.1 86 1.3 S 26 46 14 25 1023.2 - 0.4
30/12:00pm 13.8 10.6 11.9 88 1.0 S 20 33 11 18 1023.5 - 0.4
30/11:45am 13.2 9.1 11.3 88 1.0 S 24 37 13 20 1023.7 - 0.4
30/11:30am 13.0 9.2 11.0 88 1.1 S 22 37 12 20 1023.9 - 0.4
30/11:15am 13.1 10.2 11.1 88 1.1 S 17 32 9 17 1023.9 - 0.4
30/11:00am 12.8 9.4 10.6 86 1.2 S 19 41 10 22 1024.0 - 0.2
30/10:45am 13.0 8.3 10.5 85 1.3 S 26 44 14 24 1024.0 - 0.2
30/10:30am 13.3 9.4 10.8 85 1.3 S 22 46 12 25 1024.0 - 0.0
30/10:15am 12.8 7.6 10.1 84 1.4 S 28 44 15 24 1024.0 - 0.0
30/10:00am 13.1 7.8 9.9 81 1.7 S 28 48 15 26 1023.8 - 0.0
30/09:45am 13.7 8.1 10.1 79 1.9 S 30 50 16 27 1023.8 - 0.0
30/09:30am 13.7 8.5 10.3 80 1.8 S 28 46 15 25 1023.9 - 0.0
30/09:15am 13.1 8.6 10.1 82 1.6 S 24 41 13 22 1024.0 - 0.0
30/09:00am 12.7 7.8 9.9 83 1.4 S 26 41 14 22 1024.1 - 0.2
30/08:45am 12.5 7.2 10.0 85 1.3 S 28 44 15 24 1024.2 - 0.2
30/08:30am 12.3 8.2 10.0 86 1.2 S 22 41 12 22 1024.2 - 0.2
30/08:15am 11.9 7.3 9.6 86 1.2 S 24 50 13 27 1024.3 - 0.2
30/08:00am 11.9 8.0 9.3 84 1.3 S 20 35 11 19 1024.2 - 0.0
30/07:45am 12.1 7.7 9.1 82 1.5 S 22 35 12 19 1024.1 - 0.0
30/07:30am 12.4 7.7 9.2 81 1.6 S 24 41 13 22 1024.0 - 0.0
30/07:15am 12.2 7.1 9.1 81 1.6 S 26 43 14 23 1023.9 - 0.0
30/07:00am 12.2 6.2 8.8 80 1.7 S 30 52 16 28 1023.9 - 0.0
30/06:45am 12.2 7.0 8.7 79 1.8 S 26 37 14 20 1023.7 - 0.0
30/06:30am 12.1 6.5 8.6 79 1.7 S 28 44 15 24 1023.6 - 0.0
30/06:15am 11.9 7.0 8.5 80 1.7 S 24 37 13 20 1023.5 - 0.0
30/06:00am 11.8 6.1 8.4 80 1.7 S 28 44 15 24 1023.3 - 0.0
30/05:45am 11.9 5.8 8.2 78 1.8 S 30 46 16 25 1023.2 - 0.0
30/05:30am 11.9 5.8 8.1 77 1.9 S 30 44 16 24 1023.1 - 0.0
30/05:15am 11.9 5.7 7.9 76 2.0 S 30 50 16 27 1022.9 - 0.0
30/05:00am 12.1 5.9 7.9 75 2.1 S 30 46 16 25 1023.0 - 0.0
30/04:45am 11.9 6.0 7.7 75 2.1 S 28 44 15 24 1023.1 - 0.0
30/04:30am 11.9 5.7 7.7 75 2.1 S 30 52 16 28 1023.1 - 0.0
30/04:15am 11.8 5.9 7.6 75 2.1 S 28 43 15 23 1023.1 - 0.0
30/04:00am 11.9 5.2 7.5 74 2.1 S 32 46 17 25 1023.0 - 0.0
30/03:45am 12.2 6.3 7.5 73 2.3 S 28 44 15 24 1023.1 - 0.0
30/03:30am 12.2 5.5 7.5 73 2.3 S 32 54 17 29 1023.1 - 0.0
30/03:15am 12.1 5.4 7.4 73 2.3 S 32 54 17 29 1023.1 - 0.0
30/03:00am 12.1 6.5 7.2 72 2.4 S 26 39 14 21 1023.2 - 0.0
30/02:45am 12.3 6.3 7.0 70 2.6 S 28 44 15 24 1023.4 - 0.0
30/02:30am 12.6 5.8 6.8 68 2.8 S 32 54 17 29 1023.4 - 0.0
30/02:15am 12.6 6.9 6.7 67 2.8 S 26 46 14 25 1023.6 - 0.0
30/02:00am 12.5 7.2 6.7 68 2.8 S 24 37 13 20 1023.7 - 0.0
30/01:45am 12.4 7.1 6.7 68 2.7 S 24 41 13 22 1023.8 - 0.0
30/01:30am 12.2 6.9 6.7 69 2.6 S 24 39 13 21 1023.9 - 0.0
30/01:15am 11.9 6.5 6.5 69 2.6 S 24 37 13 20 1024.0 - 0.0
30/01:00am 11.8 7.4 6.4 69 2.6 SSW 19 33 10 18 1024.2 - 0.0
30/12:45am 11.6 7.1 6.1 69 2.6 SSW 19 28 10 15 1024.2 - 0.0
30/12:30am 11.5 6.9 5.7 67 2.7 SSW 19 28 10 15 1024.2 - 0.0
30/12:15am 11.4 6.6 5.4 66 2.8 SSW 20 30 11 16 1024.3 - 0.0
30/12:00am 11.6 6.4 5.6 66 2.8 SSW 22 33 12 18 1024.4 - 0.0
 
Date/Time
EST
Tmp

°C
App
Tmp
°C
Dew
Point
°C
Rel
Hum
%
Delta-T

°C
Wind Press
QNH
hPa
Press
MSL
hPa
Rain
since
9 am
mm
Dir
 
Spd
km/h
Gust
km/h
Spd
kts
Gust
kts
29/11:45pm 11.7 7.1 5.5 66 2.9 SSW 19 30 10 16 1024.5 - 0.0
29/11:30pm 11.8 7.0 5.4 65 3.0 SSW 20 33 11 18 1024.4 - 0.0
29/11:15pm 12.0 6.4 5.5 64 3.0 SSW 24 41 13 22 1024.5 - 0.0
29/11:00pm 12.1 6.5 5.6 64 3.0 SSW 24 37 13 20 1024.8 - 0.0
29/10:45pm 12.1 6.6 5.8 65 3.0 SSW 24 37 13 20 1024.9 - 0.0
29/10:30pm 12.0 6.2 6.2 67 2.8 SSW 26 39 14 21 1024.9 - 0.0
29/10:15pm 12.0 7.0 6.5 69 2.6 SSW 22 35 12 19 1024.9 - 0.0
29/10:00pm 12.1 6.8 6.8 70 2.5 S 24 37 13 20 1025.1 - 0.0
29/09:45pm 12.2 6.2 6.9 70 2.6 S 28 44 15 24 1025.0 - 0.0
29/09:30pm 12.3 6.7 7.0 70 2.6 S 26 37 14 20 1025.0 - 0.0
29/09:15pm 12.4 6.8 7.1 70 2.6 S 26 41 14 22 1025.0 - 0.0
29/09:00pm 12.5 6.9 7.3 70 2.5 S 26 41 14 22 1025.0 - 0.0
29/08:45pm 12.5 7.0 7.4 71 2.5 S 26 37 14 20 1025.1 - 0.0
29/08:30pm 12.6 7.5 7.6 71 2.5 S 24 39 13 21 1025.2 - 0.0
29/08:15pm 12.7 6.9 7.9 72 2.4 S 28 46 15 25 1025.2 - 0.0
29/08:00pm 12.6 6.5 8.2 74 2.2 S 30 46 16 25 1025.3 - 0.0
29/07:45pm 12.5 8.3 8.4 76 2.0 S 20 30 11 16 1025.2 - 0.0
29/07:30pm 12.5 7.6 8.6 77 2.0 SSW 24 33 13 18 1025.3 - 0.0
29/07:15pm 12.4 8.3 8.8 79 1.8 SSW 20 33 11 18 1025.3 - 0.0
29/07:00pm 12.4 7.9 8.7 78 1.9 SSW 22 33 12 18 1025.2 - 0.0
29/06:45pm 12.5 8.1 8.8 78 1.9 S 22 35 12 19 1025.1 - 0.0
29/06:30pm 12.6 7.4 8.9 78 1.9 S 26 39 14 21 1025.0 - 0.0
29/06:15pm 12.7 7.9 9.0 78 1.9 S 24 44 13 24 1024.9 - 0.0
29/06:00pm 12.7 7.9 9.0 78 1.9 S 24 37 13 20 1024.8 - 0.0
29/05:45pm 12.9 8.6 9.2 78 1.9 S 22 33 12 18 1024.7 - 0.0
29/05:30pm 12.7 8.3 9.1 79 1.8 S 22 33 12 18 1024.7 - 0.0
29/05:15pm 12.8 8.4 9.1 78 1.9 S 22 33 12 18 1024.5 - 0.0
29/05:00pm 12.9 7.4 9.3 79 1.8 S 28 37 15 20 1024.4 - 0.0
29/04:45pm 13.2 8.6 9.6 79 1.9 S 24 46 13 25 1024.5 - 0.0
29/04:30pm 13.2 8.6 9.5 78 1.9 S 24 35 13 19 1024.5 - 0.0
29/04:15pm 13.1 8.3 9.0 76 2.1 S 24 37 13 20 1024.6 - 0.0
29/04:00pm 14.9 9.7 8.9 67 3.1 S 26 50 14 27 1024.4 - 0.0
29/03:45pm 15.2 10.4 9.0 66 3.2 S 24 37 13 20 1024.2 - 0.0
29/03:30pm 15.1 9.9 8.7 65 3.3 S 26 54 14 29 1024.3 - 0.0
29/03:15pm 14.9 9.9 9.4 69 2.8 S 26 48 14 26 1024.4 - 0.0
29/03:00pm 13.9 8.3 8.9 72 2.5 S 28 39 15 21 1024.6 - 0.0
29/02:45pm 14.1 7.7 8.4 68 2.9 S 32 50 17 27 1024.7 - 0.0
29/02:30pm 16.0 10.8 9.0 63 3.6 S 26 48 14 26 1024.5 - 0.0
29/02:15pm 16.6 13.0 9.8 64 3.6 S 19 30 10 16 1024.5 - 0.0
29/02:00pm 15.9 11.3 9.5 66 3.3 S 24 37 13 20 1024.8 - 0.0
29/01:45pm 16.3 11.7 9.8 65 3.4 S 24 37 13 20 1024.9 - 0.0
29/01:30pm 15.6 10.2 9.4 66 3.2 S 28 44 15 24 1024.9 - 0.0
29/01:15pm 15.4 9.8 10.1 70 2.8 S 30 44 16 24 1025.1 - 0.0
29/01:00pm 14.8 11.4 11.3 79 1.9 S 20 39 11 21 1025.2 - 0.0
29/12:45pm 13.6 10.3 11.0 84 1.4 S 19 35 10 19 1025.6 - 0.0
29/12:30pm 12.6 8.1 10.1 85 1.3 S 24 37 13 20 1026.0 - 0.0
29/12:15pm 12.1 6.6 9.2 82 1.5 S 28 44 15 24 1026.2 - 0.0
29/12:00pm 13.9 7.9 8.7 71 2.6 SSE 30 56 16 30 1026.2 - 0.0
29/11:45am 15.2 10.3 8.3 63 3.5 SSE 24 37 13 20 1026.0 - 0.0
29/11:30am 15.7 10.9 8.8 63 3.5 S 24 37 13 20 1026.1 - 0.0
29/11:15am 15.3 10.6 9.2 67 3.2 S 24 41 13 22 1026.3 - 0.0
29/11:00am 14.4 10.6 9.1 70 2.7 S 19 26 10 14 1026.5 - 0.0
29/10:45am 14.0 9.9 8.7 70 2.7 S 20 37 11 20 1026.7 - 0.0
29/10:30am 14.5 9.7 8.8 68 2.9 S 24 41 13 22 1026.6 - 0.0
29/10:15am 14.9 10.5 9.1 68 3.0 S 22 46 12 25 1026.6 - 0.0
29/10:00am 14.3 9.9 8.9 70 2.8 S 22 35 12 19 1026.7 - 0.0
29/09:45am 14.3 9.5 9.0 70 2.7 S 24 37 13 20 1026.9 - 0.0
29/09:30am 14.2 10.9 9.5 73 2.4 SSW 17 26 9 14 1026.9 - 0.0
29/09:15am 13.5 9.7 9.1 75 2.2 SSW 19 30 10 16 1027.1 - 0.0
29/09:00am 13.1 9.4 9.3 78 1.9 SSW 19 30 10 16 1027.2 - 0.2
29/08:45am 12.3 8.9 9.3 82 1.5 SSW 17 28 9 15 1027.1 - 0.2
29/08:30am 11.0 7.8 8.4 84 1.3 SSW 15 19 8 10 1027.3 - 0.2
29/08:15am 10.5 7.2 7.9 84 1.3 SSW 15 19 8 10 1027.4 - 0.2
29/08:00am 10.2 6.8 7.6 84 1.3 SW 15 20 8 11 1027.2 - 0.2
29/07:45am 10.0 6.2 7.4 84 1.2 SSW 17 22 9 12 1027.0 - 0.2
29/07:30am 9.9 5.7 7.3 84 1.2 SSW 19 24 10 13 1026.8 - 0.2
29/07:15am 9.8 5.5 7.1 83 1.3 SSW 19 22 10 12 1026.7 - 0.2
29/07:00am 9.9 6.0 7.2 83 1.3 SSW 17 24 9 13 1026.6 - 0.2
29/06:45am 10.0 6.1 7.3 83 1.3 SSW 17 24 9 13 1026.5 - 0.2
29/06:30am 10.0 6.1 7.2 83 1.3 SSW 17 22 9 12 1026.4 - 0.2
29/06:15am 10.1 5.8 7.2 82 1.4 SSW 19 22 10 12 1026.4 - 0.2
29/06:00am 10.2 6.0 7.3 82 1.4 SSW 19 26 10 14 1026.3 - 0.2
29/05:45am 10.2 6.0 7.3 82 1.4 SSW 19 26 10 14 1026.1 - 0.2
29/05:30am 10.0 5.7 7.1 82 1.4 S 19 26 10 14 1026.0 - 0.2
29/05:15am 10.0 5.7 7.0 81 1.4 S 19 24 10 13 1026.0 - 0.2
29/05:00am 10.2 5.9 7.2 82 1.4 SSW 19 24 10 13 1025.8 - 0.2
29/04:45am 10.2 6.3 7.3 82 1.4 S 17 24 9 13 1025.9 - 0.2
29/04:30am 10.2 6.0 7.3 82 1.4 S 19 24 10 13 1026.0 - 0.2
29/04:15am 10.2 5.9 7.2 82 1.4 S 19 26 10 14 1026.0 - 0.2
29/04:00am 10.2 5.9 7.2 82 1.4 S 19 26 10 14 1026.0 - 0.2
29/03:45am 10.1 6.2 7.1 81 1.4 S 17 24 9 13 1026.1 - 0.2
29/03:30am 10.2 6.3 7.2 82 1.4 S 17 26 9 14 1026.2 - 0.2
29/03:15am 10.3 6.0 7.1 80 1.5 S 19 26 10 14 1026.3 - 0.2
29/03:00am 10.2 5.9 7.1 81 1.5 S 19 26 10 14 1026.4 - 0.2
29/02:45am 10.1 6.2 6.9 80 1.5 S 17 26 9 14 1026.5 - 0.2
29/02:30am 10.2 6.6 6.9 80 1.6 S 15 24 8 13 1026.6 - 0.2
29/02:15am 10.5 6.6 7.2 80 1.6 S 17 24 9 13 1026.7 - 0.2
29/02:00am 10.4 6.1 7.1 80 1.6 S 19 26 10 14 1026.7 - 0.2
29/01:45am 10.5 6.3 7.3 80 1.5 S 19 26 10 14 1026.8 - 0.2
29/01:30am 10.4 5.6 7.3 81 1.5 S 22 28 12 15 1026.9 - 0.2
29/01:15am 10.5 6.3 7.5 82 1.4 S 19 26 10 14 1027.2 - 0.2
29/01:00am 10.4 6.2 7.6 83 1.4 S 19 24 10 13 1027.3 - 0.2
29/12:45am 10.3 6.5 7.6 83 1.3 S 17 26 9 14 1027.5 - 0.2
29/12:30am 10.2 6.0 7.6 84 1.3 S 19 24 10 13 1027.6 - 0.2
29/12:15am 10.1 5.9 7.5 84 1.3 S 19 24 10 13 1027.7 - 0.2
29/12:00am 10.3 6.6 7.9 85 1.2 S 17 22 9 12 1027.9 - 0.2
 
Date/Time
EST
Tmp

°C
App
Tmp
°C
Dew
Point
°C
Rel
Hum
%
Delta-T

°C
Wind Press
QNH
hPa
Press
MSL
hPa
Rain
since
9 am
mm
Dir
 
Spd
km/h
Gust
km/h
Spd
kts
Gust
kts
28/11:45pm 10.0 6.2 7.7 86 1.1 S 17 24 9 13 1027.9 - 0.2
28/11:30pm 9.7 5.8 7.3 85 1.1 S 17 22 9 12 1027.9 - 0.2
28/11:15pm 9.8 6.3 7.3 84 1.2 S 15 20 8 11 1027.8 - 0.2
28/11:00pm 10.2 6.5 7.8 85 1.2 S 17 22 9 12 1027.9 - 0.2
28/10:45pm 10.1 6.7 7.6 84 1.2 S 15 19 8 10 1027.9 - 0.2
28/10:30pm 10.1 6.7 7.5 84 1.3 S 15 20 8 11 1028.0 - 0.2
28/10:15pm 10.3 6.9 7.5 83 1.3 S 15 19 8 10 1028.1 - 0.2
28/10:00pm 10.4 7.0 7.5 82 1.4 S 15 20 8 11 1028.2 - 0.2
28/09:45pm 10.7 7.3 7.5 80 1.5 S 15 19 8 10 1028.3 - 0.2
28/09:30pm 10.8 7.3 7.3 79 1.7 S 15 26 8 14 1028.4 - 0.2
28/09:15pm 10.8 7.2 6.7 76 1.9 S 15 26 8 14 1028.4 - 0.2
28/09:00pm 11.4 7.9 7.3 76 2.0 SSW 15 19 8 10 1028.3 - 0.2
28/08:45pm 10.5 7.3 6.9 78 1.7 SSW 13 17 7 9 1028.2 - 0.2
28/08:30pm 10.3 7.4 6.4 77 1.8 S 11 13 6 7 1028.1 - 0.2
28/08:15pm 10.7 7.8 6.7 76 1.9 S 11 15 6 8 1028.1 - 0.2
28/08:00pm 10.7 7.5 6.7 76 1.9 S 13 19 7 10 1028.1 - 0.2
28/07:45pm 11.0 7.8 6.7 75 2.0 S 13 17 7 9 1028.0 - 0.2
28/07:30pm 11.4 7.8 6.7 73 2.2 S 15 19 8 10 1028.0 - 0.2
28/07:15pm 12.3 8.8 7.2 71 2.5 SSE 15 20 8 11 1028.0 - 0.2
28/07:00pm 12.4 8.9 7.4 71 2.4 SSE 15 22 8 12 1027.9 - 0.2
28/06:45pm 12.5 9.1 7.6 72 2.4 SSE 15 20 8 11 1027.8 - 0.2
28/06:30pm 12.7 8.9 7.7 71 2.5 SSE 17 20 9 11 1027.6 - 0.2
28/06:15pm 12.9 9.6 7.9 71 2.5 SSE 15 24 8 13 1027.5 - 0.2

Latest Capital City Observations: Canberra | Sydney | Melbourne | Brisbane | Adelaide | Perth | Hobart | Darwin

Other Formats:

Comma delimited format used in spreadsheet applications
http://www.bom.gov.au/fwo/IDN60901/IDN60901.95757.axf

JavaScript Object Notation format (JSON) in row-major order
http://www.bom.gov.au/fwo/IDN60901/IDN60901.95757.json